Tiempo atmosférico en la estación meteorológica de La Almunia De Doña Godina, Zaragoza (370 m.)



Fecha
DESCASC
Temp. máxima en grados centígrados (hora)
DESCASC
Temp. mínima en grados centígrados (hora)
DESCASC
Temp. media en grados centígrados
DESCASC
Racha de viento máxima en m/sg (hora)
DESCASC
Velocidad máxima media en intervalos de 10 minutos(hora)
DESCASC
Precipitaciones diarias en mm
DESCASC
Precipitaciones de 00:00 a 06:00 en mm
DESCASC
Precipitaciones de 06:00 a 12:00 en mm
DESCASC
Precipitaciones de 12:00 a 18:00 en mm
DESCASC
Precipitaciones de 18:00 a 24:00 en mm
DESCASC
17-09-2020 31.3 (17:20) 19.2 (04:50) 25.3 6.67 (19:20) 3.61 (19:20) 0 0 0 0 0
15-09-2020 33.2 (17:20) 16.9 (07:50) 25.1 10 (02:10) 5.28 (02:20) 1 0.6 0.4 0 0
14-09-2020 33.9 (17:50) 13.3 (07:30) 23.6 7.22 (13:50) 3.61 (01:40) 0 0 0 0 0
13-09-2020 35.2 (17:00) 13 (00:00) 24.1 6.39 (16:40) 3.06 (15:20) 0 0 0 0 0
12-09-2020 31.3 (16:40) 12.9 (07:10) 22.1 5.56 (15:40) 2.78 (15:00) 0 0 0 0 0
11-09-2020 30.4 (16:40) 12.2 (00:00) 21.3 5.28 (16:10) 2.78 (18:40) 0 0 0 0 0
10-09-2020 29.8 (16:40) 12.6 (00:00) 21.2 10 (17:20) 5.56 (18:20) 0 0 0 0 0
09-09-2020 29.8 (18:10) 11.5 (07:50) 20.6 8.89 (22:30) 4.44 (22:40) 0 0 0 0 0
08-09-2020 26.8 (15:50) 8.6 (00:00) 17.7 6.39 (18:20) 3.89 (18:20) 0 0 0 0 0
07-09-2020 23.7 (16:40) 14 (07:20) 18.9 12.5 (19:40) 7.78 (19:40) 0 0 0 0 0
06-09-2020 24.3 (15:40) 13.8 (00:00) 19 13.06 (19:30) 7.22 (16:50) 0 0 0 0 0
05-09-2020 30.5 (16:50) 14.6 (00:00) 22.6 9.17 (19:20) 5 (18:10) 0 0 0 0 0
04-09-2020 34.1 (18:00) 11.6 (00:00) 22.8 6.39 (15:10) 3.33 (16:20) 0 0 0 0 0
03-09-2020 30.2 (17:30) 9.9 (00:00) 20.1 5.56 (17:30) 3.33 (18:10) 0 0 0 0 0
02-09-2020 27.2 (17:10) 12 (00:00) 19.6 9.44 (13:10) 5.83 (13:10) 0 0 0 0 0
01-09-2020 28.2 (18:40) 11.7 (00:00) 20 7.78 (21:30) 3.89 (21:30) 0 0 0 0 0
31-08-2020 25.8 (17:10) 11.7 (00:00) 18.7 7.78 (00:50) 3.61 (18:40) 0 0 0 0 0
30-08-2020 21.9 (15:30) 11.9 (00:00) 16.9 11.94 (16:00) 7.22 (16:00) 0 0 0 0 0
29-08-2020 23.7 (15:50) 14.2 (00:00) 19 13.33 (18:30) 7.22 (18:40) 0 0 0 0 0
28-08-2020 27.7 (14:00) 17.9 (00:00) 22.8 13.61 (17:00) 8.33 (17:00) 0 0 0 0 0
27-08-2020 35.3 (17:20) 16.7 (00:00) 26 5.28 (16:50) 3.06 (18:40) 0 0 0 0 0
26-08-2020 34.2 (17:00) 16.7 (00:00) 25.5 5 (16:20) 3.06 (01:40) 0 0 0 0 0
25-08-2020 35.3 (18:50) 15.1 (00:00) 25.2 7.5 (18:20) 4.44 (18:20) 0 0 0 0 0
24-08-2020 30.3 (17:20) 13.5 (07:20) 21.9 7.5 (14:30) 3.89 (14:30) 0 0 0 0 0
23-08-2020 28.8 (16:20) 15.8 (00:00) 22.3 9.17 (18:20) 5 (17:30) 0 0 0 0 0
22-08-2020 30.1 (17:40) 18.7 (00:00) 24.4 8.33 (15:30) 4.44 (16:10) 0 0 0 0 0
21-08-2020 38.3 (17:30) 17 (05:40) 27.6 9.17 (16:00) 5.28 (22:50) 0 0 0 0 0
20-08-2020 38.3 (17:50) 16.1 (00:00) 27.2 6.67 (20:10) 3.89 (16:00) 0 0 0 0 0

Gráficas

Temp. máximas Temp. mínimas Temp. medias Precipitaciones Rachas de viento máximas Velocidades máximas media en intervalos de 10 minutos

Datos horarios

Fecha y hora oficial Temperatura (ºC) Velocidad del viento (km/h) Dirección del viento Racha (km/h) Dirección de racha Precipitación (mm) Presión (hPa) Tendencia (hPa) Humedad (%)
2020-09-18 23:00:00 18.4 3 Oeste 8 Este 0 -- -- 85
2020-09-18 22:00:00 18.6 0 Calma 8 Sur 0 -- -- 87
2020-09-18 21:00:00 18.8 0 Calma 7 Sudoeste 0 -- -- 88
2020-09-18 20:00:00 19.9 3 Sudoeste 9 Noroeste 0 -- -- 81
2020-09-18 19:00:00 22.2 3 Este 13 Nordeste 0 -- -- 71
2020-09-18 18:00:00 22.8 8 Nordeste 14 Nordeste 0 -- -- 68
2020-09-18 17:00:00 21.2 4 Norte 9 Norte 0 -- -- 79
2020-09-18 16:00:00 19.9 3 Oeste 41 Sur 2.2 -- -- 84
2020-09-18 15:00:00 25.7 8 Este 19 Este 0 -- -- 49
2020-09-18 14:00:00 26.7 10 Sudeste 26 Sudeste 0 -- -- 43
2020-09-18 13:00:00 26.5 14 Sudeste 24 Sur 0 -- -- 45
2020-09-18 12:00:00 22.2 6 Norte 13 Norte 0 -- -- 67
2020-09-18 11:00:00 20.7 4 Nordeste 9 Norte 0 -- -- 80
2020-09-18 10:00:00 19.2 6 Oeste 12 Oeste 0.2 -- -- 85
2020-09-18 09:00:00 19.4 4 Oeste 10 Sur 0 -- -- 79
2020-09-18 08:00:00 19.7 2 Sudoeste 9 Norte 0 -- -- 72
2020-09-18 07:00:00 20.4 3 Noroeste 11 Nordeste 0 -- -- 70
2020-09-18 06:00:00 20.9 3 Sudoeste 12 Este 0 -- -- 68
2020-09-18 05:00:00 21.9 4 Nordeste 16 Norte 0 -- -- 67
2020-09-18 04:00:00 22.3 3 Sur 14 Sur 0 -- -- 66
2020-09-18 03:00:00 23.2 4 Este 17 Nordeste 0 -- -- 64
2020-09-18 02:00:00 24.4 4 Nordeste 42 Sudoeste 0 -- -- 57
2020-09-18 01:00:00 26.1 27 Sur 44 Sudoeste 0 -- -- 50
2020-09-18 00:00:00 21.8 6 Nordeste 10 Norte 0 -- -- 62
2020-09-17 23:00:00 21.4 3 Este 9 Sudoeste 0 -- -- 62
2020-09-17 22:00:00 23 7 Sudoeste 10 Sudoeste 0 -- -- 57
2020-09-17 21:00:00 25.6 3 Sudoeste 7 Este 0 -- -- 51
2020-09-17 20:00:00 28.2 5 Sur 24 Sudoeste 0 -- -- 42
2020-09-17 19:00:00 29.7 12 Sur 23 Sudeste 0 -- -- 36
2020-09-17 18:00:00 30.6 10 Sudeste 23 Sudeste 0 -- -- 35
2020-09-17 17:00:00 30.7 8 Nordeste 18 Nordeste 0 -- -- 39
2020-09-17 16:00:00 29.1 11 Norte 20 Norte 0 -- -- 44
2020-09-17 15:00:00 29.4 10 Norte 18 Norte 0 -- -- 44
2020-09-17 14:00:00 27.7 7 Norte 12 Norte 0 -- -- 51
2020-09-17 13:00:00 25.8 5 Nordeste 9 Este 0 -- -- 57
2020-09-17 12:00:00 23.5 2 Norte 6 Nordeste 0 -- -- 68
2020-09-17 11:00:00 22.7 3 Nordeste 6 Nordeste 0 -- -- 73
2020-09-17 10:00:00 21 2 Norte 5 Norte 0 -- -- 78
2020-09-17 09:00:00 19.7 4 Norte 6 Norte 0 -- -- 78
2020-09-17 08:00:00 19.5 3 Sudoeste 6 Sudoeste 0 -- -- 76
2020-09-17 07:00:00 19.7 4 Noroeste 10 Sudoeste 0 -- -- 75
2020-09-17 06:00:00 19.2 0 Calma 5 Sudoeste 0 -- -- 72
2020-09-17 05:00:00 19.3 4 Sudoeste 5 Norte 0 -- -- 72
2020-09-17 04:00:00 19.8 2 Sudoeste 8 Sudoeste 0 -- -- 68
2020-09-17 03:00:00 19.9 3 Oeste 9 Noroeste 0 -- -- 67
2020-09-17 02:00:00 20.6 4 Nordeste 9 Sudeste 0 -- -- 66
2020-09-17 01:00:00 21.1 3 Sudeste 9 Oeste 0 -- -- 63
2020-09-17 00:00:00 21 7 Norte 10 Norte 0 -- -- 66
2020-09-16 23:00:00 21.6 0 Calma 6 Sudoeste 0 -- -- 62
2020-09-16 22:00:00 22.6 0 Calma 3 Noroeste 0 -- -- 58
2020-09-16 21:00:00 24.9 0 Calma 8 Sudoeste 0 -- -- 51
2020-09-16 20:00:00 28.7 3 Sudeste 11 Sudeste 0 -- -- 40
2020-09-16 19:00:00 30.3 7 Este 17 Nordeste 0 -- -- 37
2020-09-16 18:00:00 31.6 9 Nordeste 21 Nordeste 0 -- -- 35
2020-09-16 17:00:00 31.9 10 Nordeste 19 Nordeste 0 -- -- 35
2020-09-16 16:00:00 30.6 9 Norte 15 Nordeste 0 -- -- 42
2020-09-16 15:00:00 31.6 4 Nordeste 12 Nordeste 0 -- -- 38
2020-09-16 14:00:00 29.5 5 Nordeste 12 Nordeste 0 -- -- 44
2020-09-16 13:00:00 27 5 Norte 13 Nordeste 0 -- -- 52
2020-09-16 12:00:00 26.1 6 Norte 10 Norte 0 -- -- 54
2020-09-16 11:00:00 24.6 3 Sudeste 8 Este 0 -- -- 55
2020-09-16 10:00:00 21 2 Este 4 Sur 0 -- -- 67
2020-09-16 09:00:00 16.6 3 Nordeste 5 Nordeste 0 -- -- 85
2020-09-16 08:00:00 14.8 3 Sur 8 Sudoeste 0 -- -- 89
2020-09-16 07:00:00 15.1 3 Sur 6 Sudoeste 0 -- -- 87
2020-09-16 06:00:00 15.8 4 Sudoeste 5 Sudoeste 0 -- -- 84
2020-09-16 05:00:00 16.2 3 Sur 5 Sudoeste 0 -- -- 82
2020-09-16 04:00:00 16.8 0 Calma 5 Sudoeste 0 -- -- 81
2020-09-16 03:00:00 17.8 2 Sudoeste 9 Sudoeste 0 -- -- 78
2020-09-16 02:00:00 18.5 3 Norte 11 Oeste 0 -- -- 77
2020-09-16 01:00:00 19 4 Noroeste 8 Noroeste 0 -- -- 76
2020-09-16 00:00:00 20 0 Calma 5 Sur 0 -- -- 72
2020-09-15 23:00:00 21.7 2 Sudoeste 8 Sudoeste 0 -- -- 65
2020-09-15 22:00:00 24.3 3 Noroeste 8 Noroeste 0 -- -- 57
2020-09-15 21:00:00 27 3 Nordeste 17 Sudeste 0 -- -- 45
2020-09-15 20:00:00 28.5 9 Sudeste 21 Sudeste 0 -- -- 41
2020-09-15 19:00:00 30.7 6 Sudeste 17 Sudeste 0 -- -- 37
2020-09-15 18:00:00 31.7 6 Sudeste 16 Sudeste 0 -- -- 35
2020-09-15 17:00:00 32.6 9 Sudeste 18 Este 0 -- -- 33
2020-09-15 16:00:00 31.9 4 Noroeste 13 Nordeste 0 -- -- 35
2020-09-15 15:00:00 32 5 Este 18 Nordeste 0 -- -- 36
2020-09-15 14:00:00 31.1 6 Este 15 Este 0 -- -- 40
2020-09-15 13:00:00 29.2 9 Este 18 Este 0 -- -- 44
2020-09-15 12:00:00 27.2 8 Este 13 Este 0 -- -- 56
2020-09-15 11:00:00 23.8 4 Sudeste 8 Sudeste 0 -- -- 69
2020-09-15 10:00:00 20.3 2 Sudoeste 8 Nordeste 0.4 -- -- 81
2020-09-15 09:00:00 19.5 2 Sur 6 Sudoeste 0 -- -- 83
2020-09-15 08:00:00 16.9 0 Calma 6 Sur 0 -- -- 90
2020-09-15 07:00:00 17.7 3 Oeste 9 Sudoeste 0 -- -- 87
2020-09-15 06:00:00 18.7 2 Sudeste 9 Oeste 0 -- -- 83
2020-09-15 05:00:00 19.2 3 Noroeste 13 Oeste 0 -- -- 77
2020-09-15 04:00:00 20.3 8 Noroeste 20 Oeste 0 -- -- 73
2020-09-15 03:00:00 20.6 6 Norte 36 Sur 0.6 -- -- 77
2020-09-15 02:00:00 24.3 15 Sur 31 Sur 0 -- -- 48
2020-09-15 01:00:00 22.9 4 Noroeste 9 Noroeste 0 -- -- 54
2020-09-15 00:00:00 23.8 4 Noroeste 8 Norte 0 -- -- 54
2020-09-14 23:00:00 24.4 3 Nordeste 9 Nordeste 0 -- -- 50
2020-09-14 22:00:00 25.5 3 Nordeste 9 Sudeste 0 -- -- 48
2020-09-14 21:00:00 27 6 Sudoeste 19 Este 0 -- -- 44
2020-09-14 20:00:00 28.6 4 Sudeste 12 Este 0 -- -- 37
2020-09-14 19:00:00 30.3 6 Este 24 Este 0 -- -- 36
2020-09-14 18:00:00 33.7 13 Este 24 Este 0 -- -- 28
2020-09-14 17:00:00 31.8 7 Este 15 Este 0 -- -- 32
2020-09-14 16:00:00 31.6 9 Nordeste 22 Nordeste 0 -- -- 33
2020-09-14 15:00:00 31.3 7 Nordeste 21 Nordeste 0 -- -- 31
2020-09-14 14:00:00 32.4 8 Este 26 Nordeste 0 -- -- 31
2020-09-14 13:00:00 28.5 7 Norte 15 Norte 0 -- -- 40
2020-09-14 12:00:00 27.2 5 Norte 12 Norte 0 -- -- 42
2020-09-14 11:00:00 25.5 3 Nordeste 6 Este 0 -- -- 44
2020-09-14 10:00:00 22.4 2 Sudeste 5 Sur 0 -- -- 50
2020-09-14 09:00:00 16.8 0 Calma 6 Sudoeste 0 -- -- 71
2020-09-14 08:00:00 13.3 3 Sudoeste 4 Sudoeste 0 -- -- 83
2020-09-14 07:00:00 13.9 0 Calma 6 Sudoeste 0 -- -- 80
2020-09-14 06:00:00 14.6 3 Sudoeste 8 Sudoeste 0 -- -- 77
2020-09-14 05:00:00 15.5 4 Sudoeste 6 Sudoeste 0 -- -- 73
2020-09-14 04:00:00 16.8 3 Sur 6 Sudoeste 0 -- -- 69
2020-09-14 03:00:00 19.3 4 Norte 10 Este 0 -- -- 59
2020-09-14 02:00:00 22.7 3 Noroeste 21 Sudoeste 0 -- -- 49
2020-09-14 01:00:00 19 0 Calma 10 Sudoeste 0 -- -- 60
2020-09-14 00:00:00 19.8 3 Oeste 9 Sur 0 -- -- 55
2020-09-13 23:00:00 20.1 4 Norte 9 Sudeste 0 -- -- 51
2020-09-13 22:00:00 21.7 3 Norte 4 Norte 0 -- -- 46
2020-09-13 21:00:00 24.5 2 Sur 8 Este 0 -- -- 39
2020-09-13 20:00:00 29.3 5 Este 15 Este 0 -- -- 30
2020-09-13 19:00:00 33.5 9 Este 19 Nordeste 0 -- -- 25
2020-09-13 18:00:00 34.5 11 Este 21 Este 0 -- -- 23
2020-09-13 17:00:00 35.2 8 Este 23 Nordeste 0 -- -- 25
2020-09-13 16:00:00 33.3 7 Norte 21 Este 0 -- -- 30
2020-09-13 15:00:00 32.6 9 Nordeste 18 Nordeste 0 -- -- 31
2020-09-13 14:00:00 31.4 6 Nordeste 13 Este 0 -- -- 37
2020-09-13 13:00:00 29.6 6 Nordeste 12 Nordeste 0 -- -- 42
2020-09-13 12:00:00 27.3 3 Sudeste 12 Este 0 -- -- 44
2020-09-13 11:00:00 25.2 3 Este 7 Nordeste 0 -- -- 45
2020-09-13 10:00:00 22.1 2 Este 6 Sudoeste 0 -- -- 52
2020-09-13 09:00:00 16.6 0 Calma 4 Sudoeste 0 -- -- 64
2020-09-13 08:00:00 13 2 Sudoeste 5 Sudoeste 0 -- -- 77
2020-09-13 07:00:00 13.2 2 Sudoeste 6 Sudoeste 0 -- -- 76
2020-09-13 06:00:00 13.3 0 Calma 8 Sudoeste 0 -- -- 77
2020-09-13 05:00:00 13.7 3 Sur 6 Sudoeste 0 -- -- 75
2020-09-13 04:00:00 14.2 3 Sudoeste 5 Sudoeste 0 -- -- 73
2020-09-13 03:00:00 14.9 4 Sudoeste 9 Sudoeste 0 -- -- 72
2020-09-13 02:00:00 15.5 0 Calma 6 Sudoeste 0 -- -- 71
2020-09-13 01:00:00 16.4 5 Sudoeste 8 Sur 0 -- -- 66
2020-09-13 00:00:00 16.9 3 Sudoeste 8 Sur 0 -- -- 63
2020-09-12 23:00:00 17.9 7 Sudoeste 10 Sur 0 -- -- 58
2020-09-12 22:00:00 19.1 5 Sudoeste 7 Sudoeste 0 -- -- 61
2020-09-12 21:00:00 22.6 2 Oeste 6 Noroeste 0 -- -- 52
2020-09-12 20:00:00 26.5 5 Norte 13 Norte 0 -- -- 43
2020-09-12 19:00:00 29.4 8 Norte 18 Norte 0 -- -- 36
2020-09-12 18:00:00 30.2 8 Norte 17 Norte 0 -- -- 35
2020-09-12 17:00:00 30.7 6 Nordeste 16 Nordeste 0 -- -- 36
2020-09-12 16:00:00 30.4 8 Nordeste 20 Este 0 -- -- 36
2020-09-12 15:00:00 29.9 10 Este 19 Este 0 -- -- 38
2020-09-12 14:00:00 27.9 8 Nordeste 14 Norte 0 -- -- 44
2020-09-12 13:00:00 26.7 5 Nordeste 16 Este 0 -- -- 52
2020-09-12 12:00:00 26.2 6 Este 10 Este 0 -- -- 53
2020-09-12 11:00:00 24.5 4 Este 8 Este 0 -- -- 56
2020-09-12 10:00:00 20.5 2 Norte 6 Nordeste 0 -- -- 69
2020-09-12 09:00:00 16.5 2 Sur 5 Nordeste 0 -- -- 79
2020-09-12 08:00:00 13.3 2 Nordeste 9 Sudoeste 0 -- -- 88
2020-09-12 07:00:00 13 0 Calma 5 Sudoeste 0 -- -- 88
2020-09-12 06:00:00 13.5 3 Sudoeste 6 Sudoeste 0 -- -- 87
2020-09-12 05:00:00 14.1 0 Calma 6 Noroeste 0 -- -- 84
2020-09-12 04:00:00 14.7 3 Oeste 5 Oeste 0 -- -- 81
2020-09-12 03:00:00 15.2 0 Calma 6 Sudoeste 0 -- -- 77
2020-09-12 02:00:00 16.4 5 Sudoeste 9 Sudoeste 0 -- -- 72
2020-09-12 01:00:00 16.9 4 Sudoeste 9 Sudoeste 0 -- -- 67
2020-09-12 00:00:00 17.1 5 Sur 8 Sudoeste 0 -- -- 67
2020-09-11 23:00:00 17.6 0 Calma 6 Sur 0 -- -- 65
2020-09-11 22:00:00 18.9 3 Sur 6 Sur 0 -- -- 63
2020-09-11 21:00:00 22 4 Sudoeste 7 Sudoeste 0 -- -- 54
2020-09-11 20:00:00 26.5 2 Nordeste 16 Norte 0 -- -- 40
2020-09-11 19:00:00 29.3 10 Nordeste 18 Este 0 -- -- 39
2020-09-11 18:00:00 29.8 10 Nordeste 19 Nordeste 0 -- -- 38
2020-09-11 17:00:00 30 9 Nordeste 19 Nordeste 0 -- -- 39
2020-09-11 16:00:00 29.8 9 Nordeste 18 Este 0 -- -- 39
2020-09-11 15:00:00 28.1 9 Norte 19 Nordeste 0 -- -- 42
2020-09-11 14:00:00 27.7 9 Nordeste 17 Nordeste 0 -- -- 42
2020-09-11 13:00:00 26.6 5 Nordeste 14 Nordeste 0 -- -- 45
2020-09-11 12:00:00 25.1 4 Nordeste 13 Este 0 -- -- 47
2020-09-11 11:00:00 23.6 5 Sudeste 11 Sudoeste 0 -- -- 47
2020-09-11 10:00:00 20.5 5 Sudoeste 11 Oeste 0 -- -- 50
2020-09-11 09:00:00 16.3 3 Oeste 12 Oeste 0 -- -- 65
2020-09-11 08:00:00 12.6 2 Sudeste 10 Sudoeste 0 -- -- 78
2020-09-11 07:00:00 12.4 3 Sur 10 Sudoeste 0 -- -- 78
2020-09-11 06:00:00 12.3 2 Sudoeste 7 Oeste 0 -- -- 79
2020-09-11 05:00:00 13.5 3 Sudoeste 8 Sudoeste 0 -- -- 75
2020-09-11 04:00:00 13.8 2 Nordeste 8 Sur 0 -- -- 74
2020-09-11 03:00:00 14.5 5 Sudeste 8 Este 0 -- -- 70
2020-09-11 02:00:00 15.3 0 Calma 10 Sudoeste 0 -- -- 67
2020-09-11 01:00:00 17.3 10 Sudoeste 19 Norte 0 -- -- 60
2020-09-11 00:00:00 20.3 6 Nordeste 15 Noroeste 0 -- -- 51
2020-09-10 23:00:00 21 6 Noroeste 16 Norte 0 -- -- 47
2020-09-10 22:00:00 22 5 Norte 17 Norte 0 -- -- 47
2020-09-10 21:00:00 23.5 3 Sur 19 Nordeste 0 -- -- 41
2020-09-10 20:00:00 26.5 6 Norte 28 Norte 0 -- -- 35
2020-09-10 19:00:00 28.5 17 Norte 33 Nordeste 0 -- -- 29
2020-09-10 18:00:00 29.7 17 Norte 36 Norte 0 -- -- 29
2020-09-10 17:00:00 29.8 18 Norte 31 Norte 0 -- -- 30
2020-09-10 16:00:00 29.5 17 Norte 30 Norte 0 -- -- 33
2020-09-10 15:00:00 28.9 14 Nordeste 30 Nordeste 0 -- -- 36
2020-09-10 14:00:00 28.3 15 Norte 29 Norte 0 -- -- 36
2020-09-10 13:00:00 28.4 5 Norte 13 Noroeste 0 -- -- 37
2020-09-10 12:00:00 26.7 4 Sudeste 12 Nordeste 0 -- -- 39
2020-09-10 11:00:00 24.5 6 Nordeste 9 Nordeste 0 -- -- 46
2020-09-10 10:00:00 22.3 3 Este 6 Este 0 -- -- 56
2020-09-10 09:00:00 15.9 0 Calma 5 Sur 0 -- -- 78
2020-09-10 08:00:00 12.8 0 Calma 5 Norte 0 -- -- 83
2020-09-10 07:00:00 12.8 2 Sur 5 Sudoeste 0 -- -- 82
2020-09-10 06:00:00 13.9 5 Sudoeste 9 Sudoeste 0 -- -- 77
2020-09-10 05:00:00 14.8 6 Sudoeste 12 Sudoeste 0 -- -- 73
2020-09-10 04:00:00 16.7 0 Calma 15 Noroeste 0 -- -- 66
2020-09-10 03:00:00 18.1 6 Oeste 12 Oeste 0 -- -- 62
2020-09-10 02:00:00 18.9 5 Este 15 Norte 0 -- -- 61
2020-09-10 01:00:00 20.8 7 Norte 15 Noroeste 0 -- -- 60
2020-09-10 00:00:00 20.9 5 Norte 22 Este 0 -- -- 59
2020-09-09 23:00:00 22.4 10 Este 32 Nordeste 0 -- -- 55
2020-09-09 22:00:00 21.8 3 Norte 17 Noroeste 0 -- -- 51
2020-09-09 21:00:00 22.8 3 Sudoeste 9 Sudoeste 0 -- -- 48
2020-09-09 20:00:00 27.2 4 Sur 10 Sudeste 0 -- -- 34
2020-09-09 19:00:00 27.9 6 Este 15 Sudeste 0 -- -- 32
2020-09-09 18:00:00 29.7 8 Sudeste 16 Sudeste 0 -- -- 29
2020-09-09 17:00:00 28.9 5 Este 13 Este 0 -- -- 33
2020-09-09 16:00:00 28.2 6 Nordeste 21 Nordeste 0 -- -- 34
2020-09-09 15:00:00 28.4 7 Nordeste 15 Este 0 -- -- 34
2020-09-09 14:00:00 27.5 6 Este 13 Este 0 -- -- 39
2020-09-09 13:00:00 25.5 5 Este 12 Sudeste 0 -- -- 41
2020-09-09 12:00:00 23 4 Este 10 Este 0 -- -- 46
2020-09-09 11:00:00 21.6 6 Nordeste 9 Nordeste 0 -- -- 47
2020-09-09 10:00:00 20 3 Oeste 9 Sudoeste 0 -- -- 47
2020-09-09 09:00:00 14.2 3 Nordeste 5 Este 0 -- -- 71
2020-09-09 08:00:00 11.5 3 Nordeste 7 Oeste 0 -- -- 79
2020-09-09 07:00:00 12 3 Nordeste 9 Sudoeste 0 -- -- 76
2020-09-09 06:00:00 12 0 Calma 4 Nordeste 0 -- -- 73
2020-09-09 05:00:00 12.8 0 Calma 8 Oeste 0 -- -- 71
2020-09-09 04:00:00 13.4 4 Sudoeste 7 Sudoeste 0 -- -- 68
2020-09-09 03:00:00 14.7 0 Calma 5 Norte 0 -- -- 69
2020-09-09 02:00:00 15.1 4 Sudoeste 7 Sudoeste 0 -- -- 64
2020-09-09 01:00:00 15.4 3 Sudoeste 10 Sudoeste 0 -- -- 63
2020-09-09 00:00:00 17.5 2 Noroeste 8 Noroeste 0 -- -- 54
2020-09-08 23:00:00 19.1 4 Norte 5 Sudoeste 0 -- -- 51
2020-09-08 22:00:00 20.2 2 Sur 9 Sudoeste 0 -- -- 48
2020-09-08 21:00:00 22.1 0 Calma 9 Este 0 -- -- 39
2020-09-08 20:00:00 24.4 3 Este 14 Norte 0 -- -- 34
2020-09-08 19:00:00 25.5 10 Norte 23 Norte 0 -- -- 33
2020-09-08 18:00:00 25.8 13 Norte 21 Norte 0 -- -- 33
2020-09-08 17:00:00 25.6 12 Norte 22 Nordeste 0 -- -- 34
2020-09-08 16:00:00 26 8 Norte 20 Este 0 -- -- 33
2020-09-08 15:00:00 25.7 6 Nordeste 14 Nordeste 0 -- -- 35
2020-09-08 14:00:00 24.2 8 Nordeste 15 Nordeste 0 -- -- 40
2020-09-08 13:00:00 22.8 7 Nordeste 17 Este 0 -- -- 44
2020-09-08 12:00:00 20.4 6 Norte 13 Norte 0 -- -- 51
2020-09-08 11:00:00 19.1 6 Nordeste 10 Norte 0 -- -- 54
2020-09-08 10:00:00 17.5 3 Sur 6 Sudoeste 0 -- -- 57
2020-09-08 09:00:00 12.6 2 Este 6 Sur 0 -- -- 77
2020-09-08 08:00:00 8.7 3 Sudoeste 6 Sudoeste 0 -- -- 88
2020-09-08 07:00:00 9.1 4 Sur 9 Sudoeste 0 -- -- 84
2020-09-08 06:00:00 10.3 4 Sudoeste 8 Sudoeste 0 -- -- 80
2020-09-08 05:00:00 10.4 3 Sudoeste 6 Sudoeste 0 -- -- 80
2020-09-08 04:00:00 11.4 4 Sur 11 Sudoeste 0 -- -- 76
2020-09-08 03:00:00 12.7 4 Sudoeste 12 Oeste 0 -- -- 70
2020-09-08 02:00:00 14.3 4 Oeste 13 Sudoeste 0 -- -- 64
2020-09-08 01:00:00 14.7 4 Sudoeste 14 Sudoeste 0 -- -- 62
2020-09-08 00:00:00 15.8 4 Oeste 15 Noroeste 0 -- -- 58
2020-09-07 23:00:00 16.9 5 Sudoeste 34 Noroeste 0 -- -- 53
2020-09-07 22:00:00 18 19 Noroeste 44 Norte 0 -- -- 50
2020-09-07 21:00:00 18.7 16 Norte 40 Noroeste 0 -- -- 46
2020-09-07 20:00:00 20.4 22 Norte 45 Norte 0 -- -- 41
2020-09-07 19:00:00 22.3 21 Norte 41 Norte 0 -- -- 37
2020-09-07 18:00:00 23.1 23 Norte 39 Norte 0 -- -- 34
2020-09-07 17:00:00 23.5 22 Norte 45 Norte 0 -- -- 33
2020-09-07 16:00:00 23.4 24 Norte 42 Norte 0 -- -- 36
2020-09-07 15:00:00 23 22 Norte 42 Norte 0 -- -- 38
2020-09-07 14:00:00 22.5 23 Norte 40 Norte 0 -- -- 38
2020-09-07 13:00:00 21.8 19 Norte 44 Noroeste 0 -- -- 41
2020-09-07 12:00:00 20.5 21 Norte 41 Noroeste 0 -- -- 44
2020-09-07 11:00:00 19.7 16 Noroeste 42 Noroeste 0 -- -- 49
2020-09-07 10:00:00 18.4 13 Noroeste 37 Norte 0 -- -- 53
2020-09-07 09:00:00 17.2 20 Noroeste 34 Norte 0 -- -- 56
2020-09-07 08:00:00 15.1 9 Noroeste 24 Noroeste 0 -- -- 59
2020-09-07 07:00:00 14.4 6 Noroeste 20 Norte 0 -- -- 63
2020-09-07 06:00:00 15.7 13 Noroeste 37 Noroeste 0 -- -- 60
2020-09-07 05:00:00 15.8 17 Norte 39 Norte 0 -- -- 60
2020-09-07 04:00:00 15.6 13 Norte 23 Noroeste 0 -- -- 63
2020-09-07 03:00:00 15.6 8 Norte 27 Norte 0 -- -- 64
2020-09-07 02:00:00 16.1 9 Norte 22 Norte 0 -- -- 61
2020-09-07 01:00:00 16.3 6 Norte 18 Norte 0 -- -- 62
2020-09-07 00:00:00 16.6 7 Norte 21 Norte 0 -- -- 62
2020-09-06 23:00:00 17.5 7 Nordeste 20 Norte 0 -- -- 60
2020-09-06 22:00:00 18.5 9 Norte 26 Norte 0 -- -- 56
2020-09-06 21:00:00 19.8 14 Norte 36 Norte 0 -- -- 51
2020-09-06 20:00:00 21.5 17 Norte 47 Norte 0 -- -- 47
2020-09-06 19:00:00 23 15 Norte 42 Norte 0 -- -- 45
2020-09-06 18:00:00 23.6 22 Norte 39 Nordeste 0 -- -- 46
2020-09-06 17:00:00 23.8 23 Norte 41 Norte 0 -- -- 48
2020-09-06 16:00:00 24 20 Norte 36 Norte 0 -- -- 49
2020-09-06 15:00:00 24.1 19 Norte 33 Noroeste 0 -- -- 50
2020-09-06 14:00:00 23.4 19 Norte 35 Nordeste 0 -- -- 52
2020-09-06 13:00:00 22.7 17 Norte 31 Norte 0 -- -- 55
2020-09-06 12:00:00 21.3 12 Norte 28 Noroeste 0 -- -- 59
2020-09-06 11:00:00 21 5 Sudoeste 11 Sudoeste 0 -- -- 59
2020-09-06 10:00:00 19.1 5 Sudoeste 9 Sudoeste 0 -- -- 67
2020-09-06 09:00:00 17.1 0 Calma 6 Sudoeste 0 -- -- 77
2020-09-06 08:00:00 14.1 5 Sudoeste 6 Sudoeste 0 -- -- 89
2020-09-06 07:00:00 14 4 Sudoeste 6 Sudoeste 0 -- -- 88
2020-09-06 06:00:00 14.3 3 Oeste 6 Sudoeste 0 -- -- 87
2020-09-06 05:00:00 14.7 4 Sudoeste 7 Sudoeste 0 -- -- 86
2020-09-06 04:00:00 15 5 Sudoeste 7 Sudoeste 0 -- -- 85
2020-09-06 03:00:00 15.2 4 Sudoeste 6 Sudoeste 0 -- -- 85
2020-09-06 02:00:00 15.9 2 Norte 8 Oeste 0 -- -- 82
2020-09-06 01:00:00 16.9 5 Norte 10 Sur 0 -- -- 79
2020-09-06 00:00:00 19.1 4 Oeste 24 Nordeste 0 -- -- 70
2020-09-05 23:00:00 19.9 13 Nordeste 21 Nordeste 0 -- -- 67
2020-09-05 22:00:00 21.2 12 Nordeste 25 Norte 0 -- -- 63
2020-09-05 21:00:00 23 10 Norte 33 Norte 0 -- -- 57
2020-09-05 20:00:00 25.5 14 Norte 33 Norte 0 -- -- 52
2020-09-05 19:00:00 27.8 17 Norte 33 Norte 0 -- -- 48
2020-09-05 18:00:00 29.6 17 Norte 32 Nordeste 0 -- -- 45
2020-09-05 17:00:00 30.4 11 Nordeste 22 Nordeste 0 -- -- 39
2020-09-05 16:00:00 30 10 Nordeste 25 Nordeste 0 -- -- 41
2020-09-05 15:00:00 29.1 8 Nordeste 20 Norte 0 -- -- 41
2020-09-05 14:00:00 28.4 9 Nordeste 23 Nordeste 0 -- -- 47
2020-09-05 13:00:00 26.4 9 Nordeste 20 Nordeste 0 -- -- 52
2020-09-05 12:00:00 25.1 10 Nordeste 20 Norte 0 -- -- 57
2020-09-05 11:00:00 23.2 8 Nordeste 13 Norte 0 -- -- 63
2020-09-05 10:00:00 21.5 4 Nordeste 8 Nordeste 0 -- -- 65
2020-09-05 09:00:00 18.2 0 Calma 2 Este 0 -- -- 79
2020-09-05 08:00:00 14.6 3 Sudoeste 8 Sudoeste 0 -- -- 87
2020-09-05 07:00:00 15.1 6 Sudoeste 8 Sudoeste 0 -- -- 80
2020-09-05 06:00:00 15.5 4 Sudoeste 7 Sur 0 -- -- 82
2020-09-05 05:00:00 15.6 3 Sudoeste 9 Sudoeste 0 -- -- 78
2020-09-05 04:00:00 16 6 Sudoeste 7 Sudoeste 0 -- -- 72
2020-09-05 03:00:00 17 0 Calma 6 Sudoeste 0 -- -- 70
2020-09-05 02:00:00 18.4 3 Sudoeste 7 Noroeste 0 -- -- 65
2020-09-05 01:00:00 20.2 5 Norte 14 Noroeste 0 -- -- 58
2020-09-05 00:00:00 19 0 Calma 7 Noroeste 0 -- -- 60
2020-09-04 23:00:00 20.5 2 Sur 10 Noroeste 0 -- -- 53
2020-09-04 22:00:00 22.8 5 Norte 10 Norte 0 -- -- 46
2020-09-04 21:00:00 26.9 4 Sur 12 Este 0 -- -- 37
2020-09-04 20:00:00 30.6 7 Este 16 Este 0 -- -- 32
2020-09-04 19:00:00 33.6 10 Este 21 Este 0 -- -- 28
2020-09-04 18:00:00 34.1 9 Este 21 Este 0 -- -- 27
2020-09-04 17:00:00 33.4 12 Este 21 Nordeste 0 -- -- 29
2020-09-04 16:00:00 32.9 6 Este 23 Norte 0 -- -- 34
2020-09-04 15:00:00 31.5 6 Nordeste 20 Este 0 -- -- 36
2020-09-04 14:00:00 29.9 6 Nordeste 15 Sudeste 0 -- -- 38
2020-09-04 13:00:00 27.3 5 Nordeste 12 Nordeste 0 -- -- 42
2020-09-04 12:00:00 25.3 5 Nordeste 10 Nordeste 0 -- -- 48
2020-09-04 11:00:00 23.3 3 Este 8 Nordeste 0 -- -- 54
2020-09-04 10:00:00 20.9 4 Este 6 Nordeste 0 -- -- 60
2020-09-04 09:00:00 16 2 Nordeste 3 Este 0 -- -- 72
2020-09-04 08:00:00 11.8 0 Calma 5 Sudoeste 0 -- -- 82
2020-09-04 07:00:00 11.7 4 Sudoeste 5 Sudoeste 0 -- -- 80
2020-09-04 06:00:00 12 0 Calma 4 Noroeste 0 -- -- 80
2020-09-04 05:00:00 12.9 3 Sudoeste 5 Sur 0 -- -- 75
2020-09-04 04:00:00 13.1 2 Oeste 8 Sudoeste 0 -- -- 76
2020-09-04 03:00:00 13.8 3 Oeste 5 Nordeste 0 -- -- 75
2020-09-04 02:00:00 14.4 2 Norte 8 Oeste 0 -- -- 71
2020-09-04 01:00:00 15.4 0 Calma 8 Sur 0 -- -- 69
2020-09-04 00:00:00 16.2 0 Calma 6 Sudoeste 0 -- -- 66
2020-09-03 23:00:00 17.9 4 Sudoeste 9 Norte 0 -- -- 60
2020-09-03 22:00:00 19.3 0 Calma 8 Sudoeste 0 -- -- 59
2020-09-03 21:00:00 23.2 3 Norte 9 Norte 0 -- -- 46
2020-09-03 20:00:00 27 6 Norte 14 Nordeste 0 -- -- 40
2020-09-03 19:00:00 29.5 10 Norte 19 Norte 0 -- -- 33
2020-09-03 18:00:00 29.9 10 Norte 20 Norte 0 -- -- 32
2020-09-03 17:00:00 30.1 10 Norte 18 Norte 0 -- -- 31
2020-09-03 16:00:00 29.1 10 Norte 18 Norte 0 -- -- 34
2020-09-03 15:00:00 29.1 6 Este 14 Nordeste 0 -- -- 38
2020-09-03 14:00:00 28 6 Este 12 Este 0 -- -- 39
2020-09-03 13:00:00 25.7 3 Este 15 Este 0 -- -- 41
2020-09-03 12:00:00 23.3 3 Norte 10 Norte 0 -- -- 44
2020-09-03 11:00:00 21.2 4 Este 9 Nordeste 0 -- -- 48
2020-09-03 10:00:00 18.5 3 Noroeste 6 Sudoeste 0 -- -- 54
2020-09-03 09:00:00 14.3 3 Sur 5 Sudoeste 0 -- -- 68
2020-09-03 08:00:00 10.3 3 Sudoeste 6 Sur 0 -- -- 83
2020-09-03 07:00:00 10.2 0 Calma 8 Noroeste 0 -- -- 84
2020-09-03 06:00:00 10.6 4 Oeste 9 Noroeste 0 -- -- 82
2020-09-03 05:00:00 11.1 0 Calma 4 Sur 0 -- -- 81
2020-09-03 04:00:00 12 0 Calma 6 Norte 0 -- -- 78
2020-09-03 03:00:00 13.1 3 Oeste 8 Sudoeste 0 -- -- 75
2020-09-03 02:00:00 14.4 6 Sur 11 Sur 0 -- -- 69
2020-09-03 01:00:00 14.5 5 Sudoeste 12 Sudoeste 0 -- -- 67
2020-09-03 00:00:00 17.6 3 Noroeste 17 Norte 0 -- -- 57
2020-09-02 23:00:00 18.9 8 Norte 13 Norte 0 -- -- 51
2020-09-02 22:00:00 19.3 3 Norte 13 Norte 0 -- -- 48
2020-09-02 21:00:00 21.1 5 Nordeste 15 Nordeste 0 -- -- 43
2020-09-02 20:00:00 24.4 8 Nordeste 21 Nordeste 0 -- -- 37
2020-09-02 19:00:00 26.5 15 Nordeste 24 Nordeste 0 -- -- 32
2020-09-02 18:00:00 27 15 Nordeste 28 Norte 0 -- -- 31
2020-09-02 17:00:00 27.1 12 Nordeste 27 Norte 0 -- -- 31
2020-09-02 16:00:00 26.4 18 Nordeste 32 Nordeste 0 -- -- 32
2020-09-02 15:00:00 25.9 17 Nordeste 31 Nordeste 0 -- -- 34
2020-09-02 14:00:00 25.1 17 Nordeste 34 Nordeste 0 -- -- 34
2020-09-02 13:00:00 24.4 17 Norte 30 Norte 0 -- -- 34
2020-09-02 12:00:00 23.2 14 Norte 25 Norte 0 -- -- 36
2020-09-02 11:00:00 22.3 12 Norte 28 Noroeste 0 -- -- 38
2020-09-02 10:00:00 20.8 5 Noroeste 15 Oeste 0 -- -- 45
2020-09-02 09:00:00 17.6 5 Noroeste 12 Oeste 0 -- -- 55
2020-09-02 08:00:00 12.9 5 Oeste 8 Oeste 0 -- -- 73
2020-09-02 07:00:00 13.1 4 Sudoeste 13 Norte 0 -- -- 73
2020-09-02 06:00:00 13.5 4 Sudoeste 10 Sudoeste 0 -- -- 72
2020-09-02 05:00:00 13.9 5 Sudoeste 11 Sudoeste 0 -- -- 71
2020-09-02 04:00:00 14.2 7 Sudoeste 14 Norte 0 -- -- 66
2020-09-02 03:00:00 16.4 5 Oeste 17 Norte 0 -- -- 57
2020-09-02 02:00:00 18.4 7 Norte 23 Norte 0 -- -- 51
2020-09-02 01:00:00 19.3 11 Norte 25 Norte 0 -- -- 49
2020-09-02 00:00:00 18.2 2 Norte 15 Noroeste 0 -- -- 44
2020-09-01 23:00:00 19.7 4 Noroeste 22 Noroeste 0 -- -- 43
2020-09-01 22:00:00 21.2 12 Norte 28 Norte 0 -- -- 46
2020-09-01 21:00:00 21 3 Noroeste 9 Norte 0 -- -- 39
2020-09-01 20:00:00 23.3 4 Norte 18 Norte 0 -- -- 32
2020-09-01 19:00:00 26.7 9 Nordeste 18 Nordeste 0 -- -- 26
2020-09-01 18:00:00 26.4 5 Nordeste 17 Norte 0 -- -- 29
2020-09-01 17:00:00 27.1 6 Nordeste 15 Nordeste 0 -- -- 31
2020-09-01 16:00:00 26.5 8 Norte 17 Este 0 -- -- 33
2020-09-01 15:00:00 24.2 5 Nordeste 13 Este 0 -- -- 36
2020-09-01 14:00:00 23.5 5 Nordeste 15 Este 0 -- -- 39
2020-09-01 13:00:00 23.5 5 Este 11 Este 0 -- -- 41
2020-09-01 12:00:00 21.3 3 Norte 9 Nordeste 0 -- -- 44
2020-09-01 11:00:00 20.3 3 Este 6 Sudeste 0 -- -- 41
2020-09-01 10:00:00 17.5 0 Calma 6 Norte 0 -- -- 59
2020-09-01 09:00:00 14.8 3 Este 6 Sudoeste 0 -- -- 68
2020-09-01 08:00:00 12.6 3 Oeste 7 Sudoeste 0 -- -- 67
2020-09-01 07:00:00 14 3 Sudoeste 11 Oeste 0 -- -- 56
2020-09-01 06:00:00 13.6 3 Sur 11 Oeste 0 -- -- 56
2020-09-01 05:00:00 12.7 5 Sudoeste 8 Sudoeste 0 -- -- 59
2020-09-01 04:00:00 12.6 4 Sudoeste 10 Oeste 0 -- -- 60
2020-09-01 03:00:00 12.4 5 Sudoeste 10 Oeste 0 -- -- 56
2020-09-01 02:00:00 11.9 8 Sudoeste 9 Sudoeste 0 -- -- 63
2020-09-01 01:00:00 12.7 2 Oeste 12 Norte 0 -- -- 62
2020-09-01 00:00:00 13.3 3 Sur 7 Sudoeste 0 -- -- 60
2020-08-31 23:00:00 15 5 Sudoeste 7 Sudoeste 0 -- -- 57
2020-08-31 22:00:00 17 4 Sudoeste 7 Sudoeste 0 -- -- 53
2020-08-31 21:00:00 18.7 5 Sudoeste 8 Sudoeste 0 -- -- 47
2020-08-31 20:00:00 22.4 4 Norte 18 Nordeste 0 -- -- 34
2020-08-31 19:00:00 24.2 9 Norte 21 Norte 0 -- -- 33
2020-08-31 18:00:00 25.4 12 Norte 20 Norte 0 -- -- 32
2020-08-31 17:00:00 25.6 9 Nordeste 18 Nordeste 0 -- -- 34
2020-08-31 16:00:00 25.2 8 Nordeste 19 Nordeste 0 -- -- 36
2020-08-31 15:00:00 25.1 7 Este 22 Nordeste 0 -- -- 36
2020-08-31 14:00:00 23.8 6 Nordeste 16 Este 0 -- -- 38
2020-08-31 13:00:00 22.8 7 Sudeste 16 Oeste 0 -- -- 40
2020-08-31 12:00:00 20.8 6 Sudeste 16 Norte 0 -- -- 41
2020-08-31 11:00:00 18.7 4 Norte 21 Sudoeste 0 -- -- 48
2020-08-31 10:00:00 17.1 10 Oeste 19 Oeste 0 -- -- 53
2020-08-31 09:00:00 14.4 9 Oeste 19 Oeste 0 -- -- 61
2020-08-31 08:00:00 11.9 9 Oeste 20 Oeste 0 -- -- 68
2020-08-31 07:00:00 12 8 Oeste 20 Oeste 0 -- -- 68
2020-08-31 06:00:00 12.5 6 Oeste 17 Noroeste 0 -- -- 66
2020-08-31 05:00:00 13.7 4 Oeste 18 Noroeste 0 -- -- 63
2020-08-31 04:00:00 13.3 5 Oeste 18 Oeste 0 -- -- 65
2020-08-31 03:00:00 12.8 4 Oeste 18 Noroeste 0 -- -- 67
2020-08-31 02:00:00 13.9 4 Noroeste 16 Oeste 0 -- -- 63
2020-08-31 01:00:00 15.3 8 Noroeste 28 Norte 0 -- -- 57
2020-08-31 00:00:00 15.2 9 Noroeste 23 Noroeste 0 -- -- 58
2020-08-30 23:00:00 15.9 8 Norte 23 Noroeste 0 -- -- 55
2020-08-30 22:00:00 16.4 6 Noroeste 31 Norte 0 -- -- 58
2020-08-30 21:00:00 17.7 15 Noroeste 35 Norte 0 -- -- 52
2020-08-30 20:00:00 19 17 Norte 39 Noroeste 0 -- -- 45
2020-08-30 19:00:00 20.4 23 Norte 39 Norte 0 -- -- 43
2020-08-30 18:00:00 21.2 23 Norte 43 Norte 0 -- -- 42
2020-08-30 17:00:00 21.6 22 Norte 40 Norte 0 -- -- 42
2020-08-30 16:00:00 21.4 26 Norte 43 Norte 0 -- -- 42
2020-08-30 15:00:00 21.5 24 Norte 40 Norte 0 -- -- 42
2020-08-30 14:00:00 21.2 21 Norte 43 Norte 0 -- -- 42
2020-08-30 13:00:00 21 21 Norte 35 Norte 0 -- -- 40
2020-08-30 12:00:00 19.1 18 Norte 33 Norte 0 -- -- 46
2020-08-30 11:00:00 18.5 17 Norte 32 Norte 0 -- -- 46
2020-08-30 10:00:00 17.9 9 Noroeste 27 Noroeste 0 -- -- 47
2020-08-30 09:00:00 14.7 4 Oeste 14 Oeste 0 -- -- 55
2020-08-30 08:00:00 12.2 6 Oeste 27 Oeste 0 -- -- 59
2020-08-30 07:00:00 12.2 5 Oeste 25 Noroeste 0 -- -- 58
2020-08-30 06:00:00 14.2 13 Norte 24 Oeste 0 -- -- 56
2020-08-30 05:00:00 14.2 13 Norte 27 Noroeste 0 -- -- 58
2020-08-30 04:00:00 13.3 7 Noroeste 14 Noroeste 0 -- -- 59
2020-08-30 03:00:00 14.6 7 Noroeste 21 Noroeste 0 -- -- 52
2020-08-30 02:00:00 14.9 8 Noroeste 28 Noroeste 0 -- -- 48
2020-08-30 01:00:00 15.4 6 Oeste 35 Norte 0 -- -- 57
2020-08-30 00:00:00 16 9 Noroeste 40 Norte 0 -- -- 58
2020-08-29 23:00:00 16.9 13 Norte 32 Noroeste 0 -- -- 57
2020-08-29 22:00:00 17.9 17 Norte 39 Norte 0 -- -- 54
2020-08-29 21:00:00 18.6 14 Norte 35 Norte 0 -- -- 52
2020-08-29 20:00:00 19.4 23 Norte 42 Noroeste 0 -- -- 48
2020-08-29 19:00:00 20.9 23 Norte 48 Norte 0 -- -- 41
2020-08-29 18:00:00 22.6 25 Norte 42 Norte 0 -- -- 39
2020-08-29 17:00:00 23.5 22 Norte 43 Norte 0 -- -- 37
2020-08-29 16:00:00 22.9 19 Norte 40 Norte 0 -- -- 38
2020-08-29 15:00:00 23.1 24 Norte 40 Norte 0 -- -- 38
2020-08-29 14:00:00 22.5 21 Norte 40 Norte 0 -- -- 40
2020-08-29 13:00:00 21.5 25 Norte 45 Norte 0 -- -- 43
2020-08-29 12:00:00 21.1 16 Norte 33 Noroeste 0 -- -- 43
2020-08-29 11:00:00 19.8 17 Norte 33 Norte 0 -- -- 48
2020-08-29 10:00:00 17.7 9 Norte 22 Norte 0 -- -- 56
2020-08-29 09:00:00 17 3 Nordeste 13 Oeste 0 -- -- 55
2020-08-29 08:00:00 15.1 7 Oeste 15 Noroeste 0 -- -- 59
2020-08-29 07:00:00 14.6 0 Calma 15 Norte 0 -- -- 64
2020-08-29 06:00:00 16.4 10 Norte 21 Noroeste 0 -- -- 57
2020-08-29 05:00:00 16.9 4 Norte 24 Noroeste 0 -- -- 56
2020-08-29 04:00:00 17.2 8 Noroeste 18 Noroeste 0 -- -- 54
2020-08-29 03:00:00 17.4 5 Norte 17 Noroeste 0 -- -- 54
2020-08-29 02:00:00 17.8 10 Noroeste 28 Noroeste 0 -- -- 55
2020-08-29 01:00:00 17.7 6 Oeste 34 Norte 0 -- -- 61
2020-08-29 00:00:00 17.9 11 Norte 45 Noroeste 0 -- -- 60
2020-08-28 23:00:00 18.4 17 Norte 33 Noroeste 0 -- -- 61
2020-08-28 22:00:00 18.7 13 Norte 33 Norte 0 -- -- 59
2020-08-28 21:00:00 19.6 14 Norte 40 Norte 0 -- -- 61
2020-08-28 20:00:00 20.9 18 Norte 39 Norte 0 -- -- 59
2020-08-28 19:00:00 21.7 24 Norte 45 Norte 0 -- -- 56
2020-08-28 18:00:00 23.2 22 Norte 43 Norte 0 -- -- 57
2020-08-28 17:00:00 25.1 30 Norte 49 Norte 0 -- -- 53
2020-08-28 16:00:00 26.5 23 Norte 40 Norte 0 -- -- 51
2020-08-28 15:00:00 27 20 Norte 35 Norte 0 -- -- 54
2020-08-28 14:00:00 27.7 12 Nordeste 26 Norte 0 -- -- 55
2020-08-28 13:00:00 26.2 12 Norte 28 Norte 0 -- -- 57
2020-08-28 12:00:00 27.1 6 Sur 13 Sur 0 -- -- 54
2020-08-28 11:00:00 25.6 6 Sudeste 11 Sudoeste 0 -- -- 60
2020-08-28 10:00:00 23.9 4 Nordeste 8 Sudoeste 0 -- -- 65
2020-08-28 09:00:00 22.2 6 Sur 10 Sudeste 0 -- -- 71
2020-08-28 08:00:00 20.3 7 Sudeste 13 Sudeste 0 -- -- 78
2020-08-28 07:00:00 19.3 3 Este 8 Este 0 -- -- 81
2020-08-28 06:00:00 20.3 4 Este 10 Sudeste 0 -- -- 77
2020-08-28 05:00:00 21.3 6 Sudeste 14 Sudeste 0 -- -- 73
2020-08-28 04:00:00 22.1 8 Sudeste 19 Sur 0 -- -- 69
2020-08-28 03:00:00 22.2 9 Sur 17 Sur 0 -- -- 69
2020-08-28 02:00:00 22.5 5 Este 10 Sudeste 0 -- -- 66
2020-08-28 01:00:00 23.2 5 Sudoeste 12 Sur 0 -- -- 66
2020-08-28 00:00:00 23.6 6 Sudoeste 12 Sudoeste 0 -- -- 64
2020-08-27 23:00:00 25 7 Sudoeste 11 Noroeste 0 -- -- 57
2020-08-27 22:00:00 24.6 4 Noroeste 11 Norte 0 -- -- 57
2020-08-27 21:00:00 28.3 3 Noroeste 10 Norte 0 -- -- 44
2020-08-27 20:00:00 31.6 7 Norte 12 Norte 0 -- -- 40
2020-08-27 19:00:00 33.5 9 Norte 15 Norte 0 -- -- 35
2020-08-27 18:00:00 34 10 Norte 15 Norte 0 -- -- 35
2020-08-27 17:00:00 34.4 6 Nordeste 19 Este 0 -- -- 37
2020-08-27 16:00:00 34.4 5 Este 18 Este 0 -- -- 38
2020-08-27 15:00:00 32 8 Norte 17 Norte 0 -- -- 40
2020-08-27 14:00:00 30.9 9 Norte 16 Nordeste 0 -- -- 46
2020-08-27 13:00:00 29.9 6 Este 10 Sudeste 0 -- -- 49
2020-08-27 12:00:00 28.4 5 Este 11 Sudeste 0 -- -- 54
2020-08-27 11:00:00 26.2 4 Este 10 Este 0 -- -- 57
2020-08-27 10:00:00 23.1 3 Norte 8 Norte 0 -- -- 64
2020-08-27 09:00:00 20.4 4 Norte 9 Norte 0 -- -- 75
2020-08-27 08:00:00 16.8 5 Sudoeste 8 Sudoeste 0 -- -- 86
2020-08-27 07:00:00 16.9 0 Calma 4 Sudoeste 0 -- -- 85
2020-08-27 06:00:00 17.7 2 Sudoeste 5 Sudoeste 0 -- -- 82
2020-08-27 05:00:00 18.5 0 Calma 6 Oeste 0 -- -- 79
2020-08-27 04:00:00 19.6 3 Sudoeste 5 Sur 0 -- -- 77
2020-08-27 03:00:00 20.6 4 Sudoeste 6 Sudoeste 0 -- -- 73
2020-08-27 02:00:00 21.3 3 Sur 9 Sudoeste 0 -- -- 72
2020-08-27 01:00:00 21.9 5 Sudoeste 8 Sudoeste 0 -- -- 70
2020-08-27 00:00:00 22.7 5 Sudoeste 10 Sudoeste 0 -- -- 65
2020-08-26 23:00:00 23.4 3 Sudoeste 9 Oeste 0 -- -- 63
2020-08-26 22:00:00 24.8 5 Sur 7 Sudoeste 0 -- -- 61
2020-08-26 21:00:00 28.3 3 Norte 10 Nordeste 0 -- -- 48
2020-08-26 20:00:00 31.6 6 Norte 11 Norte 0 -- -- 39
2020-08-26 19:00:00 34 4 Norte 15 Nordeste 0 -- -- 34
2020-08-26 18:00:00 34 8 Nordeste 17 Norte 0 -- -- 36
2020-08-26 17:00:00 34.2 7 Nordeste 18 Este 0 -- -- 36
2020-08-26 16:00:00 33.3 8 Nordeste 17 Nordeste 0 -- -- 37
2020-08-26 15:00:00 32 7 Nordeste 15 Norte 0 -- -- 41
2020-08-26 14:00:00 30.9 8 Sudeste 15 Este 0 -- -- 41
2020-08-26 13:00:00 29.3 6 Este 13 Este 0 -- -- 48
2020-08-26 12:00:00 27.2 7 Nordeste 10 Este 0 -- -- 50
2020-08-26 11:00:00 24.8 4 Nordeste 10 Nordeste 0 -- -- 55
2020-08-26 10:00:00 23.1 4 Sudeste 8 Este 0 -- -- 59
2020-08-26 09:00:00 20 2 Sudeste 7 Sudeste 0 -- -- 68
2020-08-26 08:00:00 16.8 0 Calma 5 Norte 0 -- -- 80
2020-08-26 07:00:00 17.3 3 Nordeste 7 Nordeste 0 -- -- 75
2020-08-26 06:00:00 18.6 2 Nordeste 6 Nordeste 0 -- -- 71
2020-08-26 05:00:00 21.4 5 Sudeste 14 Sudeste 0 -- -- 60
2020-08-26 04:00:00 22 7 Este 17 Sudeste 0 -- -- 59
2020-08-26 03:00:00 22.9 9 Sudeste 17 Sudeste 0 -- -- 55
2020-08-26 02:00:00 23.4 10 Sur 18 Sur 0 -- -- 54
2020-08-26 01:00:00 22.5 8 Sudoeste 12 Sudoeste 0 -- -- 58
2020-08-26 00:00:00 22.4 4 Sur 9 Sudeste 0 -- -- 56
2020-08-25 23:00:00 23.6 6 Sudoeste 11 Sudoeste 0 -- -- 53
2020-08-25 22:00:00 26.6 5 Norte 12 Norte 0 -- -- 44
2020-08-25 21:00:00 30.3 3 Nordeste 13 Este 0 -- -- 38
2020-08-25 20:00:00 33.8 6 Este 16 Este 0 -- -- 32
2020-08-25 19:00:00 35.2 7 Nordeste 27 Norte 0 -- -- 29
2020-08-25 18:00:00 34.9 14 Norte 23 Norte 0 -- -- 27
2020-08-25 17:00:00 35 14 Norte 22 Norte 0 -- -- 28
2020-08-25 16:00:00 34.2 12 Norte 21 Norte 0 -- -- 31
2020-08-25 15:00:00 32.6 10 Norte 16 Norte 0 -- -- 39
2020-08-25 14:00:00 31.4 6 Nordeste 20 Nordeste 0 -- -- 43
2020-08-25 13:00:00 28.5 7 Norte 15 Norte 0 -- -- 45
2020-08-25 12:00:00 26.7 6 Nordeste 14 Norte 0 -- -- 47
2020-08-25 11:00:00 24.5 8 Norte 13 Norte 0 -- -- 53
2020-08-25 10:00:00 23.7 0 Calma 6 Nordeste 0 -- -- 59
2020-08-25 09:00:00 19.8 0 Calma 7 Sudoeste 0 -- -- 64
2020-08-25 08:00:00 15.6 3 Sudoeste 6 Sudoeste 0 -- -- 78
2020-08-25 07:00:00 15.5 4 Sudoeste 7 Sudoeste 0 -- -- 77
2020-08-25 06:00:00 15.9 0 Calma 7 Sudoeste 0 -- -- 76
2020-08-25 05:00:00 16.1 2 Sur 10 Sudoeste 0 -- -- 75
2020-08-25 04:00:00 16.3 3 Sur 6 Sudoeste 0 -- -- 73
2020-08-25 03:00:00 16.5 0 Calma 6 Sudoeste 0 -- -- 74
2020-08-25 02:00:00 17.1 2 Sur 4 Sur 0 -- -- 72
2020-08-25 01:00:00 17.5 3 Sudoeste 6 Sur 0 -- -- 72
2020-08-25 00:00:00 18.2 4 Sur 6 Sur 0 -- -- 72
2020-08-24 23:00:00 19.2 5 Sudoeste 6 Sudoeste 0 -- -- 70
2020-08-24 22:00:00 21.1 3 Oeste 6 Sudoeste 0 -- -- 62
2020-08-24 21:00:00 24.6 3 Norte 10 Nordeste 0 -- -- 49
2020-08-24 20:00:00 27.5 5 Nordeste 12 Nordeste 0 -- -- 42
2020-08-24 19:00:00 30 7 Este 17 Nordeste 0 -- -- 38
2020-08-24 18:00:00 29.8 9 Nordeste 21 Nordeste 0 -- -- 39
2020-08-24 17:00:00 29.6 10 Nordeste 22 Nordeste 0 -- -- 40
2020-08-24 16:00:00 28.6 9 Norte 22 Nordeste 0 -- -- 42
2020-08-24 15:00:00 28.2 11 Nordeste 27 Nordeste 0 -- -- 42
2020-08-24 14:00:00 26.8 10 Nordeste 22 Norte 0 -- -- 45
2020-08-24 13:00:00 26.1 8 Nordeste 22 Nordeste 0 -- -- 45
2020-08-24 12:00:00 24.4 7 Nordeste 21 Nordeste 0 -- -- 49
2020-08-24 11:00:00 23.4 5 Este 10 Este 0 -- -- 48
2020-08-24 10:00:00 21 4 Oeste 9 Sur 0 -- -- 54
2020-08-24 09:00:00 17.5 3 Este 4 Sur 0 -- -- 73
2020-08-24 08:00:00 13.9 3 Sudoeste 8 Sudoeste 0 -- -- 84
2020-08-24 07:00:00 13.7 0 Calma 5 Sudoeste 0 -- -- 83
2020-08-24 06:00:00 14.9 4 Sudoeste 9 Sudoeste 0 -- -- 78
2020-08-24 05:00:00 15.8 5 Sudoeste 10 Sur 0 -- -- 74
2020-08-24 04:00:00 16.2 5 Sudoeste 10 Sudoeste 0 -- -- 73
2020-08-24 03:00:00 17.2 5 Sudoeste 11 Sudeste 0 -- -- 70
2020-08-24 02:00:00 18.2 8 Sur 13 Sur 0 -- -- 67
2020-08-24 01:00:00 17.6 8 Sudoeste 11 Sudoeste 0 -- -- 72
2020-08-24 00:00:00 18.3 6 Sudoeste 9 Sur 0 -- -- 69
2020-08-23 23:00:00 20.5 4 Norte 13 Norte 0 -- -- 60
2020-08-23 22:00:00 22.6 13 Norte 24 Norte 0 -- -- 52
2020-08-23 21:00:00 24 13 Norte 31 Norte 0 -- -- 47
2020-08-23 20:00:00 26.1 4 Norte 27 Norte 0 -- -- 43
2020-08-23 19:00:00 28.3 15 Nordeste 33 Norte 0 -- -- 34
2020-08-23 18:00:00 28.6 15 Nordeste 30 Nordeste 0 -- -- 34
2020-08-23 17:00:00 28.7 17 Norte 31 Norte 0 -- -- 32
2020-08-23 16:00:00 28.6 14 Norte 32 Nordeste 0 -- -- 34
2020-08-23 15:00:00 28 14 Norte 32 Norte 0 -- -- 36
2020-08-23 14:00:00 27 16 Nordeste 28 Norte 0 -- -- 39
2020-08-23 13:00:00 26.1 12 Nordeste 29 Nordeste 0 -- -- 44
2020-08-23 12:00:00 25.6 5 Nordeste 12 Este 0 -- -- 49
2020-08-23 11:00:00 24 7 Sur 13 Sur 0 -- -- 51
2020-08-23 10:00:00 22.5 5 Sudeste 9 Este 0 -- -- 56
2020-08-23 09:00:00 19.4 4 Sur 8 Sudoeste 0 -- -- 70
2020-08-23 08:00:00 16 6 Sudoeste 12 Sudeste 0 -- -- 82
2020-08-23 07:00:00 15.9 3 Oeste 9 Sudoeste 0 -- -- 82
2020-08-23 06:00:00 16.2 4 Sudeste 9 Sur 0 -- -- 81
2020-08-23 05:00:00 16.8 4 Sudoeste 10 Sudoeste 0 -- -- 78
2020-08-23 04:00:00 17.7 3 Sur 10 Nordeste 0 -- -- 74
2020-08-23 03:00:00 17.7 6 Este 9 Sudeste 0 -- -- 70
2020-08-23 02:00:00 19.1 4 Sudoeste 10 Norte 0 -- -- 64
2020-08-23 01:00:00 20.1 3 Sudoeste 9 Norte 0 -- -- 57
2020-08-23 00:00:00 22.1 8 Norte 16 Noroeste 0 -- -- 51
2020-08-22 23:00:00 23 7 Norte 24 Norte 0 -- -- 50
2020-08-22 22:00:00 24.3 11 Norte 26 Norte 0 -- -- 48
2020-08-22 21:00:00 25.7 12 Norte 25 Norte 0 -- -- 45
2020-08-22 20:00:00 27.8 13 Norte 23 Norte 0 -- -- 42
2020-08-22 19:00:00 28.7 9 Norte 24 Nordeste 0 -- -- 41
2020-08-22 18:00:00 29.9 13 Norte 25 Norte 0 -- -- 39
2020-08-22 17:00:00 29.9 13 Norte 27 Norte 0 -- -- 40
2020-08-22 16:00:00 29.5 15 Norte 30 Norte 0 -- -- 42
2020-08-22 15:00:00 29.8 12 Nordeste 22 Norte 0 -- -- 42
2020-08-22 14:00:00 28.7 9 Nordeste 24 Nordeste 0 -- -- 47
2020-08-22 13:00:00 27.2 9 Nordeste 19 Nordeste 0 -- -- 52
2020-08-22 12:00:00 26.6 10 Este 18 Este 0 -- -- 55
2020-08-22 11:00:00 25.8 5 Este 13 Nordeste 0 -- -- 61
2020-08-22 10:00:00 23.4 4 Sudeste 10 Este 0 -- -- 70
2020-08-22 09:00:00 21.6 4 Sudeste 8 Sudeste 0 -- -- 74
2020-08-22 08:00:00 19.9 5 Sudoeste 10 Sudoeste 0 -- -- 80
2020-08-22 07:00:00 18.9 6 Sudoeste 9 Sudoeste 0 -- -- 83
2020-08-22 06:00:00 19.3 6 Sudoeste 10 Sudeste 0 -- -- 80
2020-08-22 05:00:00 20.4 6 Este 10 Nordeste 0 -- -- 77
2020-08-22 04:00:00 20.5 4 Este 9 Este 0 -- -- 80
2020-08-22 03:00:00 21.6 5 Sudeste 12 Sudeste 0 -- -- 80
2020-08-22 02:00:00 22.1 5 Este 14 Sudeste 0 -- -- 78
2020-08-22 01:00:00 22.6 6 Sudeste 14 Nordeste 0 -- -- 76
2020-08-22 00:00:00 23.2 9 Nordeste 25 Norte 0 -- -- 73
2020-08-21 23:00:00 24.7 16 Nordeste 32 Norte 0 -- -- 66
2020-08-21 22:00:00 28.3 12 Nordeste 23 Nordeste 0 -- -- 52
2020-08-21 21:00:00 32.7 6 Sudoeste 22 Sudoeste 0 -- -- 28
2020-08-21 20:00:00 35.6 10 Sudoeste 25 Sudoeste 0 -- -- 24
2020-08-21 19:00:00 37.4 13 Sudoeste 29 Sudoeste 0 -- -- 22
2020-08-21 18:00:00 38.1 14 Oeste 33 Oeste 0 -- -- 22
2020-08-21 17:00:00 37.9 11 Sudoeste 30 Sudoeste 0 -- -- 25
2020-08-21 16:00:00 37.8 15 Sudoeste 33 Sudoeste 0 -- -- 23
2020-08-21 15:00:00 37.1 10 Sudoeste 29 Sur 0 -- -- 27
2020-08-21 14:00:00 35.6 11 Sudoeste 26 Sudoeste 0 -- -- 29
2020-08-21 13:00:00 33.3 7 Sudeste 15 Sudeste 0 -- -- 33
2020-08-21 12:00:00 30.7 6 Este 12 Este 0 -- -- 42
2020-08-21 11:00:00 28.5 6 Sudeste 12 Sudeste 0 -- -- 50
2020-08-21 10:00:00 24.5 5 Sudeste 9 Sudeste 0 -- -- 61
2020-08-21 09:00:00 20.5 0 Calma 7 Sudoeste 0 -- -- 78
2020-08-21 08:00:00 17.3 0 Calma 6 Sudoeste 0 -- -- 87
2020-08-21 07:00:00 17.7 5 Sudoeste 6 Sudoeste 0 -- -- 86
2020-08-21 06:00:00 17.1 5 Sudoeste 7 Sudoeste 0 -- -- 85
2020-08-21 05:00:00 17.6 4 Sudoeste 10 Sudoeste 0 -- -- 82
2020-08-21 04:00:00 18.3 6 Sudoeste 10 Sudoeste 0 -- -- 79
2020-08-21 03:00:00 19.6 5 Sudoeste 10 Sudoeste 0 -- -- 75
2020-08-21 02:00:00 21 5 Sudoeste 10 Sudoeste 0 -- -- 70
2020-08-21 01:00:00 23.2 4 Oeste 13 Noroeste 0 -- -- 63
2020-08-21 00:00:00 23.8 5 Noroeste 14 Norte 0 -- -- 60
2020-08-20 23:00:00 25.2 3 Norte 9 Noroeste 0 -- -- 51
2020-08-20 22:00:00 29.4 4 Norte 17 Este 0 -- -- 38
2020-08-20 21:00:00 32.5 8 Este 24 Este 0 -- -- 35
2020-08-20 20:00:00 35.7 6 Sudeste 15 Este 0 -- -- 36
2020-08-20 19:00:00 38.1 3 Este 16 Nordeste 0 -- -- 26
2020-08-20 18:00:00 37.7 10 Nordeste 20 Este 0 -- -- 27
2020-08-20 17:00:00 37.3 8 Este 21 Nordeste 0 -- -- 26
2020-08-20 16:00:00 35.5 14 Nordeste 23 Nordeste 0 -- -- 32
2020-08-20 15:00:00 35.5 7 Nordeste 20 Nordeste 0 -- -- 34
2020-08-20 14:00:00 34.4 10 Nordeste 20 Nordeste 0 -- -- 34
2020-08-20 13:00:00 32.2 6 Nordeste 15 Nordeste 0 -- -- 37
2020-08-20 12:00:00 30.2 3 Norte 11 Norte 0 -- -- 42
2020-08-20 11:00:00 27.4 5 Norte 12 Norte 0 -- -- 48
2020-08-20 10:00:00 25.1 4 Nordeste 6 Norte 0 -- -- 55
2020-08-20 09:00:00 20.6 4 Nordeste 5 Nordeste 0 -- -- 73
2020-08-20 08:00:00 16.6 4 Sudoeste 5 Sudoeste 0 -- -- 82
2020-08-20 07:00:00 16.5 4 Sudoeste 9 Oeste 0 -- -- 70
2020-08-20 06:00:00 16.9 3 Sudoeste 5 Sur 0 -- -- 72
2020-08-20 05:00:00 18.4 4 Sur 10 Sudoeste 0 -- -- 66
2020-08-20 04:00:00 20.2 4 Sudoeste 11 Oeste 0 -- -- 59
2020-08-20 03:00:00 23.7 6 Oeste 16 Oeste 0 -- -- 46
2020-08-20 02:00:00 20.2 8 Sudoeste 13 Sudoeste 0 -- -- 51
2020-08-20 01:00:00 20.1 3 Sur 8 Sudoeste 0 -- -- 58
2020-08-20 00:00:00 21.5 4 Sudoeste 9 Sudoeste 0 -- -- 53